• Join FlightAware (Why Join?)
  • Login
  • US Flag 
09:02PM EST


 

Airport Tracker/Info


-or-


 

Live Flight TrackerFlight Track Log ✈ AAR8730 ✈ 23-Feb-2014 ✈ RKJY / RSU - RKSS / GMP

Flight Track Log - Related Links

Times and Time Zones

All times are in EST time to prevent confusion due to time zone crossing. See the AAR8730 flight status page for this flight to view local times or setup timezone preferences in your user account.

Time Position Orientation Groundspeed Altitude Reporting Facility
EST Latitude Longitude Course Direction KTS MPH feet Rate Location/Type
11:06PM 35.3072 127.4776 346° North  Level Estimated
11:07PM 35.3851 127.4545 346° North  Level Estimated
11:08PM 35.4630 127.4314 346° North  Level Estimated
11:09PM 35.5409 127.4082 346° North  Level Estimated
11:10PM 35.6188 127.3850 346° North  Level Estimated
11:11PM 35.6967 127.3617 346° North  Level Estimated
11:12PM 35.7745 127.3383 346° North  Level Estimated
11:13PM 35.8524 127.3150 346° North  Level Estimated
11:14PM 35.9302 127.2916 346° North  Level Estimated
11:15PM 36.0081 127.2681 346° North  Level Estimated
11:16PM 36.0859 127.2446 346° North  Level Estimated
11:17PM 36.1638 127.2210 346° North  Level Estimated
11:18PM 36.2416 127.1974 346° North  Level Estimated
11:19PM 36.3195 127.1738 346° North  Level Estimated
11:20PM 36.3973 127.1501 346° North  Level Estimated
11:21PM 36.4751 127.1263 346° North  Level Estimated
11:22PM 36.5529 127.1025 346° North  Level Estimated
11:23PM 36.6308 127.0787 346° North  Level Estimated
11:24PM 36.7086 127.0548 346° North  Level Estimated
11:25PM 36.7864 127.0309 346° North  Level Estimated
11:26PM 36.8642 127.0069 346° North  Level Estimated
11:27PM 36.9420 126.9828 346° North  Level Estimated
11:28PM 37.0198 126.9587 346° North  Level Estimated
11:29PM 37.0976 126.9346 346° North  Level Estimated
11:30PM 37.1753 126.9104 346° North  Level Estimated
11:31PM 37.2531 126.8862 346° North  Level Estimated
11:32PM 37.3309 126.8619 346° North  Level Estimated
11:33PM 37.4087 126.8376 346° North  Level Estimated
11:34PM 37.4864 126.8132 346° North  Level Estimated
11:35PM 37.5583 126.7906 346° North  Level Estimated
11:36PM 37.5583 126.7906 288° West  Level Estimated
11:37PM 37.5583 126.7906 288° West  Level Estimated
11:38PM 37.5583 126.7906 288° West  Level Estimated
11:39PM 37.5583 126.7906 288° West  Level Estimated
11:40PM 37.5583 126.7906 288° West  Level Estimated
11:41PM 37.5583 126.7906 288° West  Level Estimated
11:42PM 37.5583 126.7906 288° West  Level Estimated
11:43PM 37.5583 126.7906 288° West  Level Estimated
11:44PM 37.5583 126.7906 288° West  Level Estimated
11:45PM 37.5583 126.7906 288° West  Level Estimated
11:46PM 37.5583 126.7906 288° West  Level Estimated
11:47PM 37.5583 126.7906 288° West  Level Estimated